createdAt,value
2023-04-17T00:00:35.246Z,7.80
2023-04-17T00:03:20.786Z,8.15
2023-04-17T00:05:49.049Z,7.38
2023-04-17T00:08:16.281Z,8.43
2023-04-17T00:10:46.991Z,8.20
2023-04-17T00:13:18.301Z,8.85
2023-04-17T00:15:45.646Z,9.10
2023-04-17T00:18:12.781Z,9.15
2023-04-17T00:20:40.485Z,7.90
2023-04-17T00:23:07.795Z,9.07
2023-04-17T00:25:35.295Z,8.48
2023-04-17T00:28:02.410Z,8.85
2023-04-17T00:30:29.819Z,7.70
2023-04-17T00:32:57.114Z,7.53
2023-04-17T00:35:24.620Z,7.68
2023-04-17T00:37:51.682Z,7.63
2023-04-17T00:40:19.178Z,8.25
2023-04-17T00:42:52.864Z,7.50
2023-04-17T00:45:21.421Z,7.80
2023-04-17T00:47:50.562Z,7.75
2023-04-17T00:50:18.542Z,8.18
2023-04-17T00:52:47.423Z,7.78
2023-04-17T00:55:15.743Z,7.05
2023-04-17T00:57:43.856Z,7.95
2023-04-17T01:00:12.789Z,8.13
2023-04-17T01:02:40.731Z,7.90
2023-04-17T01:05:09.096Z,7.80
2023-04-17T01:07:38.677Z,7.68
2023-04-17T01:10:07.371Z,7.00
2023-04-17T01:12:34.607Z,7.50
2023-04-17T01:15:03.748Z,7.03
2023-04-17T01:17:31.279Z,6.97
2023-04-17T01:19:59.119Z,6.43
2023-04-17T01:22:26.742Z,7.05
2023-04-17T01:24:57.929Z,7.10
2023-04-17T01:27:28.529Z,7.65
2023-04-17T01:29:55.979Z,7.47
2023-04-17T01:32:23.722Z,7.63
2023-04-17T01:34:51.127Z,7.65
2023-04-17T01:37:18.995Z,7.20
2023-04-17T01:39:46.529Z,7.07
2023-04-17T01:42:13.620Z,7.05
2023-04-17T01:44:41.005Z,6.65
2023-04-17T01:47:08.102Z,7.07
2023-04-17T01:49:35.509Z,6.40
2023-04-17T01:52:02.578Z,6.70
2023-04-17T01:54:29.993Z,6.38
2023-04-17T01:56:57.721Z,6.68
2023-04-17T01:59:25.427Z,6.53
2023-04-17T02:01:53.417Z,6.00
2023-04-17T02:04:21.189Z,7.05
2023-04-17T02:06:48.511Z,6.40
2023-04-17T02:09:17.326Z,6.55
2023-04-17T02:12:09.805Z,6.25
2023-04-17T02:14:37.388Z,6.55
2023-04-17T02:17:04.752Z,7.10
2023-04-17T02:19:33.496Z,8.25
2023-04-17T02:22:03.282Z,7.45
2023-04-17T02:24:31.758Z,7.80
2023-04-17T02:27:00.964Z,7.25
2023-04-17T02:29:28.379Z,8.23
2023-04-17T02:31:56.848Z,8.27
2023-04-17T02:34:24.329Z,9.02
2023-04-17T02:36:53.337Z,8.80
2023-04-17T02:39:23.658Z,8.35
2023-04-17T02:41:50.745Z,8.80
2023-04-17T02:44:18.115Z,8.45
2023-04-17T02:46:45.348Z,7.57
2023-04-17T02:49:13.556Z,8.15
2023-04-17T02:51:40.972Z,7.45
2023-04-17T02:54:08.399Z,7.30
2023-04-17T02:56:35.645Z,7.43
2023-04-17T02:59:03.031Z,7.85
2023-04-17T03:01:30.526Z,7.07
2023-04-17T03:03:58.337Z,7.45
2023-04-17T03:06:26.708Z,7.60
2023-04-17T03:08:54.050Z,7.63
2023-04-17T03:11:21.788Z,7.18
2023-04-17T03:13:49.427Z,7.40
2023-04-17T03:16:16.462Z,7.05
2023-04-17T03:18:46.445Z,7.18
2023-04-17T03:21:13.522Z,7.50
2023-04-17T03:23:41.455Z,6.70
2023-04-17T03:26:09.458Z,6.68
2023-04-17T03:28:37.691Z,7.10
2023-04-17T03:31:05.145Z,7.38
2023-04-17T03:33:34.449Z,7.38
2023-04-17T03:36:04.434Z,8.02
2023-04-17T03:38:32.410Z,7.60
2023-04-17T03:41:00.000Z,7.70
2023-04-17T03:43:27.747Z,7.97
2023-04-17T03:45:54.885Z,7.93
2023-04-17T03:48:23.304Z,8.43
2023-04-17T03:50:52.478Z,8.13
2023-04-17T03:53:20.079Z,8.10
2023-04-17T03:55:48.961Z,7.68
2023-04-17T03:58:25.345Z,8.07
2023-04-17T04:00:55.522Z,7.43
2023-04-17T04:03:26.361Z,7.55
2023-04-17T04:05:54.096Z,7.40
2023-04-17T04:08:21.606Z,8.05
2023-04-17T04:10:51.935Z,7.22
2023-04-17T04:13:29.502Z,7.45
2023-04-17T04:15:59.936Z,6.95
2023-04-17T04:18:30.191Z,8.00
2023-04-17T04:20:57.938Z,7.75
2023-04-17T04:23:33.687Z,7.80
2023-04-17T04:26:04.601Z,7.68
2023-04-17T04:28:38.390Z,7.40
2023-04-17T04:31:09.817Z,7.32
2023-04-17T04:33:40.663Z,7.53
2023-04-17T04:36:07.953Z,7.30
2023-04-17T04:38:36.355Z,7.50
2023-04-17T04:41:17.553Z,6.90
2023-04-17T04:43:45.182Z,7.38
2023-04-17T04:46:12.845Z,7.32
2023-04-17T04:48:44.928Z,7.35
2023-04-17T04:51:13.101Z,7.25
2023-04-17T04:53:41.417Z,7.28
2023-04-17T04:56:08.884Z,6.93
2023-04-17T04:58:38.534Z,7.22
2023-04-17T05:01:06.781Z,6.78
2023-04-17T05:03:40.599Z,6.82
2023-04-17T05:06:11.113Z,7.10
2023-04-17T05:08:43.434Z,6.70
2023-04-17T05:11:12.641Z,7.15
2023-04-17T05:13:40.439Z,6.90
2023-04-17T05:16:13.844Z,6.65
2023-04-17T05:18:41.288Z,7.25
2023-04-17T05:21:11.318Z,7.35
2023-04-17T05:23:40.023Z,7.63
2023-04-17T05:26:07.350Z,7.93
2023-04-17T05:28:35.008Z,7.75
2023-04-17T05:31:02.740Z,7.78
2023-04-17T05:33:40.002Z,7.97
2023-04-17T05:36:07.970Z,7.40
2023-04-17T05:38:39.155Z,7.10
2023-04-17T05:41:08.726Z,7.18
2023-04-17T05:43:38.455Z,7.93
2023-04-17T05:46:06.735Z,8.45
2023-04-17T05:48:34.305Z,8.35
2023-04-17T05:51:04.125Z,8.77
2023-04-17T05:53:33.190Z,8.82
2023-04-17T05:56:01.775Z,8.82
2023-04-17T05:58:30.429Z,9.23
2023-04-17T06:00:58.792Z,9.68
2023-04-17T06:03:28.311Z,9.18
2023-04-17T06:06:05.720Z,9.13
2023-04-17T06:08:33.950Z,9.02
2023-04-17T06:11:01.334Z,9.18
2023-04-17T06:13:30.409Z,9.18
2023-04-17T06:15:59.145Z,7.88
2023-04-17T06:18:26.573Z,8.50
2023-04-17T06:20:53.715Z,8.40
2023-04-17T06:23:21.755Z,8.50
2023-04-17T06:25:50.065Z,8.30
2023-04-17T06:28:18.924Z,7.85
2023-04-17T06:30:46.894Z,7.57
2023-04-17T06:33:14.553Z,7.93
2023-04-17T06:35:42.566Z,7.65
2023-04-17T06:38:17.957Z,7.45
2023-04-17T06:40:46.413Z,7.97
2023-04-17T06:43:16.378Z,7.68
2023-04-17T06:45:43.939Z,7.60
2023-04-17T06:48:11.482Z,7.90
2023-04-17T06:50:39.534Z,9.30
2023-04-17T06:53:07.283Z,9.00
2023-04-17T06:55:34.446Z,9.45
2023-04-17T06:58:01.932Z,10.38
2023-04-17T07:00:29.085Z,9.57
2023-04-17T07:02:56.672Z,8.95
2023-04-17T07:05:24.089Z,8.80
2023-04-17T07:07:51.403Z,8.95
2023-04-17T07:10:19.698Z,8.65
2023-04-17T07:12:47.133Z,7.95
2023-04-17T07:15:14.586Z,9.68
2023-04-17T07:17:42.111Z,9.43
2023-04-17T07:20:09.847Z,9.20
2023-04-17T07:22:37.217Z,8.70
2023-04-17T07:25:05.520Z,10.10
2023-04-17T07:27:33.209Z,7.80
2023-04-17T07:30:00.904Z,7.82
2023-04-17T07:32:28.560Z,8.35
2023-04-17T07:34:55.789Z,9.65
2023-04-17T07:37:23.135Z,9.77
2023-04-17T07:39:50.599Z,8.80
2023-04-17T07:42:17.944Z,11.52
2023-04-17T07:44:47.104Z,10.63
2023-04-17T07:47:14.714Z,8.27
2023-04-17T07:49:42.043Z,8.05
2023-04-17T07:52:09.368Z,8.32
2023-04-17T07:54:36.659Z,8.30
2023-04-17T07:57:04.083Z,8.18
2023-04-17T07:59:31.237Z,8.05
2023-04-17T08:01:58.706Z,7.20
2023-04-17T08:04:26.405Z,8.50
2023-04-17T08:06:53.980Z,9.38
2023-04-17T08:09:22.384Z,8.10
2023-04-17T08:11:57.106Z,10.25
2023-04-17T08:14:25.675Z,9.13
2023-04-17T08:16:53.304Z,8.60
2023-04-17T08:19:20.716Z,8.70
2023-04-17T08:21:49.326Z,10.80
2023-04-17T08:24:20.124Z,11.52
2023-04-17T08:26:47.985Z,9.20
2023-04-17T08:29:15.803Z,8.30
2023-04-17T08:31:43.440Z,7.30
2023-04-17T08:34:14.861Z,8.15
2023-04-17T08:36:43.365Z,7.72
2023-04-17T08:39:12.431Z,7.32
2023-04-17T08:42:02.796Z,11.48
2023-04-17T08:44:30.817Z,10.55
2023-04-17T08:46:58.717Z,9.05
2023-04-17T08:49:29.264Z,9.02
2023-04-17T08:51:57.097Z,8.43
2023-04-17T08:54:24.156Z,7.85
2023-04-17T08:56:51.567Z,7.72
2023-04-17T08:59:18.666Z,7.95
2023-04-17T09:02:07.532Z,7.88
2023-04-17T09:04:42.838Z,7.28
2023-04-17T09:07:13.780Z,8.23
2023-04-17T09:09:55.536Z,7.70
2023-04-17T09:12:25.978Z,9.10
2023-04-17T09:14:53.316Z,9.77
2023-04-17T09:17:21.531Z,8.25
2023-04-17T09:20:17.901Z,9.13
2023-04-17T09:22:46.417Z,8.40
2023-04-17T09:25:23.126Z,9.77
2023-04-17T09:27:50.732Z,8.77
2023-04-17T09:30:17.827Z,8.63
2023-04-17T09:32:45.298Z,8.90
2023-04-17T09:35:28.085Z,8.02
2023-04-17T09:37:59.005Z,7.78
2023-04-17T09:40:28.657Z,8.00
2023-04-17T09:43:02.085Z,7.68
2023-04-17T09:45:42.657Z,7.60
2023-04-17T09:48:14.240Z,6.90
2023-04-17T09:50:41.619Z,7.35
2023-04-17T09:53:09.399Z,7.18
2023-04-17T09:55:38.129Z,7.20
2023-04-17T09:58:07.891Z,7.00
2023-04-17T10:00:37.818Z,7.38
2023-04-17T10:03:08.321Z,9.40
2023-04-17T10:05:35.780Z,7.55
2023-04-17T10:08:04.266Z,7.18
2023-04-17T10:10:33.992Z,11.20
2023-04-17T10:13:05.519Z,12.48
2023-04-17T10:15:34.138Z,8.60
2023-04-17T10:18:24.124Z,8.68
2023-04-17T10:20:53.840Z,8.80
2023-04-17T10:23:36.500Z,11.50
2023-04-17T10:26:25.552Z,13.80
2023-04-17T10:28:55.733Z,16.23
2023-04-17T10:31:43.269Z,10.38
2023-04-17T10:34:38.106Z,16.92
2023-04-17T10:37:05.317Z,10.18
2023-04-17T10:39:51.759Z,9.73
2023-04-17T10:42:23.771Z,9.82
2023-04-17T10:45:01.722Z,14.65
2023-04-17T10:47:35.344Z,13.05
2023-04-17T10:50:07.952Z,12.50
2023-04-17T10:52:41.494Z,11.65
2023-04-17T10:55:20.877Z,11.50
2023-04-17T10:58:12.918Z,16.02
2023-04-17T11:00:51.527Z,15.43
2023-04-17T11:03:25.181Z,13.52
2023-04-17T11:05:52.771Z,14.93
2023-04-17T11:08:20.192Z,11.18
2023-04-17T11:10:52.687Z,14.52
2023-04-17T11:13:19.765Z,14.18
2023-04-17T11:15:47.211Z,13.88
2023-04-17T11:18:14.441Z,13.02
2023-04-17T11:20:44.360Z,12.90
2023-04-17T11:23:11.406Z,12.80
2023-04-17T11:25:41.190Z,10.05
2023-04-17T11:28:08.418Z,9.65
2023-04-17T11:30:44.487Z,9.48
2023-04-17T11:33:15.956Z,10.38
2023-04-17T11:35:43.916Z,10.48
2023-04-17T11:38:23.786Z,10.85
2023-04-17T11:40:54.027Z,9.35
2023-04-17T11:43:23.769Z,8.98
2023-04-17T11:45:54.486Z,8.48
2023-04-17T11:48:24.933Z,6.45
2023-04-17T11:51:03.197Z,7.90
2023-04-17T11:53:32.319Z,7.80
2023-04-17T11:56:19.657Z,7.88
2023-04-17T11:58:51.569Z,8.20
2023-04-17T12:01:24.716Z,8.30
2023-04-17T12:03:58.078Z,7.43
2023-04-17T12:06:37.367Z,8.23
2023-04-17T12:09:06.460Z,7.63
2023-04-17T12:11:35.738Z,6.43
2023-04-17T12:14:05.489Z,8.20
2023-04-17T12:16:33.102Z,7.95
2023-04-17T12:19:00.511Z,7.93
2023-04-17T12:21:27.926Z,6.50
2023-04-17T12:23:55.252Z,6.90
2023-04-17T12:26:24.881Z,7.38
2023-04-17T12:28:52.264Z,7.47
2023-04-17T12:31:19.593Z,6.13
2023-04-17T12:33:47.646Z,6.72
2023-04-17T12:36:15.370Z,7.35
2023-04-17T12:38:43.114Z,6.93
2023-04-17T12:41:10.885Z,7.32
2023-04-17T12:43:38.194Z,7.05
2023-04-17T12:46:06.269Z,5.82
2023-04-17T12:48:34.051Z,6.72
2023-04-17T12:51:01.601Z,4.90
2023-04-17T12:53:29.949Z,5.90
2023-04-17T12:55:57.991Z,6.13
2023-04-17T12:58:25.334Z,7.25
2023-04-17T13:00:52.743Z,6.53
2023-04-17T13:03:20.014Z,6.80
2023-04-17T13:05:49.307Z,5.95
2023-04-17T13:08:16.440Z,6.45
2023-04-17T13:10:43.869Z,6.65
2023-04-17T13:13:11.434Z,6.18
2023-04-17T13:15:38.785Z,7.45
2023-04-17T13:18:06.142Z,7.03
2023-04-17T13:20:33.570Z,5.57
2023-04-17T13:23:00.810Z,6.95
2023-04-17T13:25:30.849Z,6.30
2023-04-17T13:27:58.646Z,6.47
2023-04-17T13:30:26.438Z,6.05
2023-04-17T13:32:53.725Z,7.30
2023-04-17T13:35:21.246Z,6.80
2023-04-17T13:37:48.958Z,5.82
2023-04-17T13:40:17.425Z,5.40
2023-04-17T13:42:44.651Z,5.05
2023-04-17T13:45:12.484Z,6.10
2023-04-17T13:47:40.343Z,5.57
2023-04-17T13:50:08.927Z,5.55
2023-04-17T13:52:36.166Z,6.13
2023-04-17T13:55:03.856Z,7.15
2023-04-17T13:57:30.955Z,5.57
2023-04-17T13:59:58.304Z,7.13
2023-04-17T14:02:25.771Z,5.60
2023-04-17T14:04:53.616Z,6.90
2023-04-17T14:07:21.061Z,5.82
2023-04-17T14:09:48.435Z,7.60
2023-04-17T14:12:20.462Z,6.40
2023-04-17T14:14:48.256Z,6.93
2023-04-17T14:17:15.560Z,6.63
2023-04-17T14:19:43.008Z,5.03
2023-04-17T14:22:10.101Z,5.10
2023-04-17T14:24:37.537Z,5.55
2023-04-17T14:27:04.710Z,6.60
2023-04-17T14:29:32.125Z,6.13
2023-04-17T14:31:59.260Z,6.10
2023-04-17T14:34:26.682Z,5.32
2023-04-17T14:39:21.488Z,5.65
2023-04-17T14:41:48.605Z,5.43
2023-04-17T14:44:16.119Z,4.25
2023-04-17T14:46:43.470Z,4.97
2023-04-17T14:49:11.487Z,5.25
2023-04-17T14:51:38.746Z,5.18
2023-04-17T14:54:06.472Z,5.70
2023-04-17T14:56:33.886Z,5.20
2023-04-17T14:59:01.553Z,4.32
2023-04-17T15:01:28.763Z,4.38
2023-04-17T15:03:56.789Z,4.13
2023-04-17T15:06:24.034Z,3.70
2023-04-17T15:08:51.696Z,5.93
2023-04-17T15:11:19.096Z,5.43
2023-04-17T15:13:46.536Z,4.22
2023-04-17T15:16:13.945Z,4.30
2023-04-17T15:18:41.399Z,5.80
2023-04-17T15:21:08.835Z,4.75
2023-04-17T15:23:36.356Z,5.47
2023-04-17T15:26:03.669Z,5.15
2023-04-17T15:28:31.182Z,5.05
2023-04-17T15:30:58.291Z,4.78
2023-04-17T15:33:25.941Z,4.60
2023-04-17T15:36:00.473Z,4.70
2023-04-17T15:38:30.459Z,4.13
2023-04-17T15:40:57.592Z,6.20
2023-04-17T15:43:25.297Z,4.10
2023-04-17T15:45:52.653Z,4.15
2023-04-17T15:48:20.187Z,3.90
2023-04-17T15:50:47.892Z,4.68
2023-04-17T15:53:16.452Z,3.70
2023-04-17T15:55:43.782Z,3.70
2023-04-17T15:58:16.616Z,4.75
2023-04-17T16:00:46.515Z,4.38
2023-04-17T16:03:15.268Z,4.50
2023-04-17T16:05:43.007Z,3.75
2023-04-17T16:08:10.410Z,4.20
2023-04-17T16:10:37.633Z,4.90
2023-04-17T16:13:05.060Z,5.43
2023-04-17T16:15:32.328Z,4.78
2023-04-17T16:17:59.986Z,4.57
2023-04-17T16:20:29.481Z,4.97
2023-04-17T16:22:56.973Z,5.18
2023-04-17T16:25:24.358Z,5.78
2023-04-17T16:27:51.649Z,5.10
2023-04-17T16:30:18.935Z,4.90
2023-04-17T16:32:48.536Z,5.13
2023-04-17T16:35:17.190Z,4.70
2023-04-17T16:37:44.618Z,3.90
2023-04-17T16:40:12.923Z,4.20
2023-04-17T16:42:41.325Z,3.45
2023-04-17T16:45:09.724Z,3.90
2023-04-17T16:47:38.864Z,3.88
2023-04-17T16:50:09.262Z,4.47
2023-04-17T16:55:09.268Z,4.22
2023-04-17T16:57:42.795Z,3.40
2023-04-17T17:00:11.960Z,2.80
2023-04-17T17:02:39.567Z,3.20
2023-04-17T17:05:08.863Z,3.13
2023-04-17T17:07:36.621Z,3.38
2023-04-17T17:10:04.339Z,2.60
2023-04-17T17:12:33.354Z,2.80
2023-04-17T17:15:00.542Z,3.50
2023-04-17T17:17:29.697Z,3.58
2023-04-17T17:19:56.950Z,3.60
2023-04-17T17:22:24.391Z,3.95
2023-04-17T17:24:51.553Z,2.75
2023-04-17T17:27:19.166Z,3.33
2023-04-17T17:29:46.292Z,2.40
2023-04-17T17:32:14.108Z,2.53
2023-04-17T17:34:41.517Z,2.83
2023-04-17T17:37:09.073Z,4.03
2023-04-17T17:39:36.398Z,3.13
2023-04-17T17:42:08.524Z,3.17
2023-04-17T17:44:36.149Z,2.90
2023-04-17T17:47:05.758Z,2.78
2023-04-17T17:49:34.403Z,2.78
2023-04-17T17:52:02.106Z,2.80
2023-04-17T17:54:29.304Z,3.13
2023-04-17T17:56:56.698Z,2.78
2023-04-17T17:59:23.904Z,2.92
2023-04-17T18:01:51.855Z,2.90
2023-04-17T18:04:19.687Z,3.47
2023-04-17T18:06:47.698Z,2.97
2023-04-17T18:09:15.101Z,2.78
2023-04-17T18:11:42.935Z,3.13
2023-04-17T18:14:10.296Z,2.45
2023-04-17T18:16:37.864Z,3.17
2023-04-17T18:19:05.427Z,3.20
2023-04-17T18:21:32.960Z,2.70
2023-04-17T18:24:01.671Z,3.40
2023-04-17T18:26:29.499Z,3.20
2023-04-17T18:28:56.606Z,2.90
2023-04-17T18:31:26.206Z,3.08
2023-04-17T18:33:53.727Z,3.40
2023-04-17T18:36:21.243Z,3.15
2023-04-17T18:38:48.573Z,3.33
2023-04-17T18:41:16.191Z,4.50
2023-04-17T18:43:43.554Z,4.15
2023-04-17T18:46:11.325Z,3.67
2023-04-17T18:48:38.609Z,3.88
2023-04-17T18:51:17.363Z,3.83
2023-04-17T18:53:44.755Z,2.92
2023-04-17T18:56:13.699Z,2.80
2023-04-17T18:58:40.895Z,2.10
2023-04-17T19:01:10.868Z,3.63
2023-04-17T19:03:39.161Z,2.97
2023-04-17T19:06:07.009Z,3.58
2023-04-17T19:08:35.733Z,3.97
2023-04-17T19:11:03.435Z,4.13
2023-04-17T19:13:30.752Z,3.25
2023-04-17T19:15:58.584Z,2.80
2023-04-17T19:18:25.782Z,3.28
2023-04-17T19:20:53.403Z,2.88
2023-04-17T19:23:20.786Z,2.63
2023-04-17T19:25:55.150Z,2.60
2023-04-17T19:28:24.368Z,2.88
2023-04-17T19:30:51.675Z,3.03
2023-04-17T19:33:19.810Z,4.20
2023-04-17T19:35:47.606Z,2.85
2023-04-17T19:38:16.891Z,3.13
2023-04-17T19:41:15.275Z,3.08
2023-04-17T19:43:49.570Z,3.90
2023-04-17T19:46:19.005Z,4.40
2023-04-17T19:48:47.838Z,4.35
2023-04-17T19:51:16.034Z,4.53
2023-04-17T19:53:44.939Z,3.05
2023-04-17T19:56:12.685Z,3.83
2023-04-17T19:58:41.047Z,3.92
2023-04-17T20:01:08.695Z,4.45
2023-04-17T20:03:38.305Z,4.30
2023-04-17T20:06:06.155Z,4.57
2023-04-17T20:08:33.574Z,3.92
2023-04-17T20:11:01.129Z,5.28
2023-04-17T20:13:28.222Z,4.15
2023-04-17T20:15:55.560Z,4.53
2023-04-17T20:18:22.655Z,5.05
2023-04-17T20:20:50.062Z,4.50
2023-04-17T20:23:17.267Z,4.82
2023-04-17T20:25:44.753Z,3.60
2023-04-17T20:28:12.089Z,3.70
2023-04-17T20:30:39.473Z,4.78
2023-04-17T20:33:06.698Z,5.90
2023-04-17T20:35:34.132Z,4.60
2023-04-17T20:38:03.383Z,5.35
2023-04-17T20:40:30.943Z,5.43
2023-04-17T20:42:58.001Z,5.18
2023-04-17T20:45:25.393Z,5.10
2023-04-17T20:47:56.857Z,4.63
2023-04-17T20:50:25.627Z,5.65
2023-04-17T20:52:52.825Z,5.05
2023-04-17T20:55:20.795Z,5.70
2023-04-17T20:57:48.283Z,4.43
2023-04-17T21:00:16.361Z,3.80
2023-04-17T21:02:43.829Z,5.45
2023-04-17T21:05:11.694Z,4.90
2023-04-17T21:07:38.806Z,4.38
2023-04-17T21:10:07.021Z,4.32
2023-04-17T21:12:35.277Z,6.32
2023-04-17T21:15:03.070Z,6.38
2023-04-17T21:17:30.277Z,5.55
2023-04-17T21:19:57.675Z,5.80
2023-04-17T21:22:24.750Z,6.18
2023-04-17T21:24:52.123Z,4.80
2023-04-17T21:27:19.204Z,5.75
2023-04-17T21:29:46.936Z,6.30
2023-04-17T21:32:14.050Z,7.38
2023-04-17T21:34:42.236Z,7.90
2023-04-17T21:37:09.380Z,7.72
2023-04-17T21:39:36.890Z,8.40
2023-04-17T21:42:04.103Z,8.15
2023-04-17T21:44:31.496Z,8.60
2023-04-17T21:46:58.652Z,8.23
2023-04-17T21:49:26.192Z,7.15
2023-04-17T21:51:53.309Z,6.65
2023-04-17T21:54:20.692Z,8.70
2023-04-17T21:56:47.927Z,8.35
2023-04-17T21:59:15.299Z,6.57
2023-04-17T22:01:42.507Z,7.13
2023-04-17T22:04:10.142Z,7.28
2023-04-17T22:06:37.551Z,7.13
2023-04-17T22:09:05.181Z,6.88
2023-04-17T22:11:32.538Z,6.20
2023-04-17T22:14:00.336Z,5.90
2023-04-17T22:16:27.460Z,7.47
2023-04-17T22:18:55.056Z,6.15
2023-04-17T22:21:22.313Z,5.00
2023-04-17T22:23:49.755Z,5.63
2023-04-17T22:26:16.878Z,6.47
2023-04-17T22:28:44.365Z,5.85
2023-04-17T22:31:14.895Z,6.53
2023-04-17T22:33:43.057Z,5.68
2023-04-17T22:36:10.097Z,7.25
2023-04-17T22:38:37.529Z,7.47
2023-04-17T22:41:05.360Z,7.07
2023-04-17T22:43:32.806Z,5.88
2023-04-17T22:45:59.887Z,6.35
2023-04-17T22:48:28.353Z,6.60
2023-04-17T22:50:56.350Z,6.53
2023-04-17T22:53:23.757Z,6.38
2023-04-17T22:56:05.173Z,6.60
2023-04-17T22:58:34.004Z,6.90
2023-04-17T23:01:01.067Z,6.40
2023-04-17T23:03:28.620Z,6.38
2023-04-17T23:05:56.431Z,6.40
2023-04-17T23:08:24.384Z,6.90
2023-04-17T23:11:03.697Z,6.95
2023-04-17T23:13:31.724Z,6.30
2023-04-17T23:15:58.907Z,5.60
2023-04-17T23:18:26.306Z,6.18
2023-04-17T23:20:53.424Z,5.85
2023-04-17T23:23:21.045Z,7.15
2023-04-17T23:25:48.641Z,7.25
2023-04-17T23:28:16.084Z,7.88
2023-04-17T23:30:43.146Z,7.32
2023-04-17T23:33:10.781Z,8.88
2023-04-17T23:35:37.983Z,9.50
2023-04-17T23:38:05.339Z,9.32
2023-04-17T23:40:32.845Z,9.60
2023-04-17T23:43:00.239Z,9.88
2023-04-17T23:45:28.298Z,11.68
2023-04-17T23:47:55.774Z,10.80
2023-04-17T23:50:22.913Z,10.75
2023-04-17T23:52:50.753Z,10.48
2023-04-17T23:55:17.979Z,10.52
2023-04-17T23:57:45.494Z,9.38
